map of PSZ home
PSZ - Airport
Location
City:  Puerto Suárez, Germán Busch, Santa Cruz, Bolivia
Name:Capitan Av. Salvador Ogaya
ICAO:SLPS
IATA:PSZ

Details
Type:Airport (Aerodrome, Airfield)
Latitude:18°58'31"S (-18.975280)
Longitude:57°49'14"W (-57.820585)
Datum:WGS 1984
Elevation:439 ft (134 m)
Variation:15.84°W (WMM2015 magnetic declination)
-0.18° annual change
Runways:1
Longest:6562 × 118 ft (2000 × 36 m), paved

Time
Time Zone:UTC-4
Local Time:

Weather
METAR:SLPS 182300Z 02004KT 8000 NSC 30/25 Q1004

Related Locations
Nearby:
Farthest:LLC: 12371 mi / 19909 km
Lal-lo [Cagayan North Intl (Lal-lo Intl)], CAG, PH

Find:

   beyond  
but within

Other Information
Maps:
NOTAMs:
Links:
Sources:

  
  • flag of Bolivia
  • flag of Santa Cruz
  

Sectional Chart

Flight Planning
at skyvector.com

Satellite Image

Google Maps Satellite view

 

Copyright © 2004-2018 Karl L. Swartz. All rights reserved.
The Great Circle Mapper name and logo are trademarks of the Great Circle Mapper.
All other trademarks mentioned herein belong to their respective owners.
Please see credits for attibutions and further copyright information.

  Follow gcmap on Facebook Follow gcmap on Twitter Follow gcmap on Google+ GCmap on LinkedIn

hCard Microformat

Geo Microformat